Time;durP1;ratioP1;P1;durP2;ratioP2;P2;SDS_P1;SDS_P2;PMS_P1;PMS_P2;Temp;Humidity;BMP_temperature;BMP_pressure;BME280_temperature;BME280_humidity;BME280_pressure;Samples;Min_cycle;Max_cycle;Signal;HPM_P1;HPM_P2
2021/01/06 00:01:38;;;;;;;13.23;5.93;;;3.00;99.90;;;;;;5033721;28;20033;-83
2021/01/06 00:04:04;;;;;;;13.73;5.53;;;3.00;99.90;;;;;;5051162;28;20195;-80
2021/01/06 00:06:30;;;;;;;12.32;5.50;;;3.00;99.90;;;;;;5050115;28;20060;-82
2021/01/06 00:08:58;;;;;;;13.40;5.43;;;3.00;99.90;;;;;;5051267;28;20021;-79
2021/01/06 00:11:35;;;;;;;19.67;6.13;;;3.10;99.90;;;;;;5051181;28;20025;-86
2021/01/06 00:14:04;;;;;;;11.68;5.22;;;3.10;99.90;;;;;;5051183;28;20107;-81
2021/01/06 00:16:29;;;;;;;11.00;6.00;;;3.10;99.90;;;;;;5051417;28;20114;-81
2021/01/06 00:18:55;;;;;;;14.77;4.45;;;3.10;99.90;;;;;;5033068;28;20484;-84
2021/01/06 00:21:21;;;;;;;10.65;5.10;;;3.20;99.90;;;;;;5050009;28;20495;-81
2021/01/06 00:23:47;;;;;;;12.00;5.18;;;3.20;99.90;;;;;;5050867;28;20029;-81
2021/01/06 00:26:13;;;;;;;9.05;4.88;;;3.30;99.90;;;;;;5049673;28;20029;-81
2021/01/06 00:28:38;;;;;;;11.48;4.50;;;3.30;99.90;;;;;;5033156;28;20200;-81
2021/01/06 00:31:04;;;;;;;9.27;4.45;;;3.30;99.90;;;;;;5050683;28;20033;-80
2021/01/06 00:33:34;;;;;;;8.82;4.70;;;3.40;99.90;;;;;;5049563;28;20064;-81
2021/01/06 00:36:09;;;;;;;8.60;3.70;;;3.40;99.90;;;;;;5049480;28;20498;-83
2021/01/06 00:38:37;;;;;;;10.07;3.80;;;3.40;99.90;;;;;;5049341;28;20043;-80
2021/01/06 00:41:03;;;;;;;9.52;3.65;;;3.40;99.90;;;;;;5049186;28;20537;-81
2021/01/06 00:43:29;;;;;;;10.70;3.70;;;3.50;99.90;;;;;;5048145;28;20458;-81
2021/01/06 00:45:55;;;;;;;8.20;3.92;;;3.50;99.90;;;;;;5032798;28;20029;-80
2021/01/06 00:48:21;;;;;;;6.25;3.22;;;3.40;99.90;;;;;;5032702;28;20069;-81
2021/01/06 00:50:47;;;;;;;7.60;3.95;;;3.40;99.90;;;;;;5049265;28;20080;-81
2021/01/06 00:53:22;;;;;;;10.80;4.18;;;3.40;99.90;;;;;;5049130;28;20475;-80
2021/01/06 00:55:48;;;;;;;9.45;4.53;;;3.30;99.90;;;;;;5049042;28;20499;-82
2021/01/06 00:58:14;;;;;;;12.93;5.40;;;3.30;99.90;;;;;;5050435;28;20032;-82
2021/01/06 01:00:40;;;;;;;10.15;5.07;;;3.30;99.90;;;;;;5049177;28;20074;-80
2021/01/06 01:03:06;;;;;;;15.98;5.78;;;3.30;99.90;;;;;;5032419;28;20063;-82
2021/01/06 01:05:34;;;;;;;9.27;4.95;;;3.30;99.90;;;;;;5048830;28;20551;-80
2021/01/06 01:08:00;;;;;;;9.10;4.85;;;3.40;99.90;;;;;;5048840;28;20028;-83
2021/01/06 01:10:35;;;;;;;12.65;5.40;;;3.40;99.90;;;;;;5032122;28;20076;-80
2021/01/06 01:13:03;;;;;;;15.60;5.57;;;3.40;99.90;;;;;;5048852;28;20036;-81
2021/01/06 01:15:31;;;;;;;12.85;6.32;;;3.50;99.90;;;;;;5050055;28;20100;-82
2021/01/06 01:17:57;;;;;;;14.60;5.78;;;3.50;99.90;;;;;;5032385;28;20032;-83
2021/01/06 01:20:23;;;;;;;11.13;6.00;;;3.50;99.90;;;;;;5032027;28;20486;-83
2021/01/06 01:22:49;;;;;;;14.15;6.30;;;3.60;99.90;;;;;;5048620;28;20028;-81
2021/01/06 01:25:18;;;;;;;16.88;6.63;;;3.60;99.90;;;;;;5048701;28;20067;-79
2021/01/06 01:27:44;;;;;;;12.73;6.10;;;3.60;99.90;;;;;;5049729;28;20017;-79
2021/01/06 01:30:13;;;;;;;13.55;6.28;;;3.70;99.90;;;;;;5048333;28;20115;-81
2021/01/06 01:32:43;;;;;;;;;;;3.70;99.90;;;;;;5048496;28;20029;-82
2021/01/06 01:35:09;;;;;;;;;;;3.80;99.90;;;;;;5032348;28;19913;-79
2021/01/06 01:37:35;;;;;;;10.75;4.95;;;3.80;99.90;;;;;;5048595;28;19920;-80
2021/01/06 01:40:00;;;;;;;9.77;4.97;;;3.80;99.90;;;;;;5048257;28;20029;-79
2021/01/06 01:42:26;;;;;;;16.02;5.65;;;3.80;99.90;;;;;;5014987;28;20037;-79
2021/01/06 01:45:00;;;;;;;11.70;5.60;;;3.80;99.90;;;;;;5031870;28;20029;-81
2021/01/06 01:47:46;;;;;;;13.05;5.43;;;3.80;99.90;;;;;;5049620;28;20491;-80
2021/01/06 01:50:11;;;;;;;10.18;5.50;;;3.80;99.90;;;;;;5049548;28;20029;-79
2021/01/06 01:52:48;;;;;;;13.35;5.80;;;3.80;99.90;;;;;;5031766;28;20021;-79
2021/01/06 01:55:15;;;;;;;14.85;5.82;;;3.70;99.90;;;;;;5047743;28;20025;-80
2021/01/06 01:57:46;;;;;;;10.00;5.72;;;3.70;99.90;;;;;;5048088;28;20033;-79
2021/01/06 02:00:18;;;;;;;9.05;5.78;;;3.70;99.90;;;;;;5047916;28;20025;-80
2021/01/06 02:03:07;;;;;;;11.52;5.63;;;3.80;99.90;;;;;;5047713;28;20438;-81
2021/01/06 02:05:42;;;;;;;;;;;3.80;99.90;;;;;;5048449;28;20028;-78
2021/01/06 02:08:16;;;;;;;8.55;5.70;;;3.80;99.90;;;;;;5047729;28;19931;-81
2021/01/06 02:10:54;;;;;;;11.18;7.30;;;3.80;99.90;;;;;;5047676;28;20048;-80
2021/01/06 02:13:23;;;;;;;10.65;5.50;;;3.80;99.90;;;;;;5047703;28;20028;-79
2021/01/06 02:16:13;;;;;;;12.80;6.27;;;3.80;99.90;;;;;;5047585;28;20075;-80
2021/01/06 02:18:38;;;;;;;14.02;5.93;;;3.80;99.90;;;;;;5048678;28;20390;-80
2021/01/06 02:21:05;;;;;;;14.40;6.85;;;3.70;99.90;;;;;;5047775;28;20033;-79
2021/01/06 02:23:31;;;;;;;14.50;6.30;;;3.70;99.90;;;;;;5047260;28;20056;-82
2021/01/06 02:25:57;;;;;;;11.25;5.38;;;3.70;99.90;;;;;;5047294;28;20032;-79
2021/01/06 02:28:23;;;;;;;9.80;5.13;;;3.70;99.90;;;;;;5030676;28;20064;-83
2021/01/06 02:30:49;;;;;;;12.40;6.35;;;3.70;99.90;;;;;;5047244;28;20387;-82
2021/01/06 02:33:15;;;;;;;10.75;5.35;;;3.60;99.90;;;;;;5048457;28;20111;-78
2021/01/06 02:35:41;;;;;;;9.10;4.65;;;3.60;99.90;;;;;;5014263;28;20116;-78
2021/01/06 02:38:06;;;;;;;10.25;5.05;;;3.50;99.90;;;;;;5030925;28;20124;-80
2021/01/06 02:40:32;;;;;;;13.32;5.10;;;3.40;99.90;;;;;;5014544;28;20029;-79
2021/01/06 02:42:58;;;;;;;9.85;5.03;;;3.30;99.90;;;;;;5030721;28;20040;-80
2021/01/06 02:45:23;;;;;;;9.75;5.13;;;3.20;99.90;;;;;;5048370;28;20036;-81
2021/01/06 02:47:50;;;;;;;15.27;5.60;;;3.10;99.90;;;;;;5030422;28;20025;-81
2021/01/06 02:50:20;;;;;;;10.85;5.30;;;3.00;99.90;;;;;;5046994;28;20036;-78
2021/01/06 02:52:56;;;;;;;9.23;4.90;;;3.00;99.90;;;;;;5046887;28;20037;-82
2021/01/06 02:55:25;;;;;;;12.80;5.63;;;3.00;99.90;;;;;;5048235;28;20036;-79
2021/01/06 02:57:52;;;;;;;7.45;4.50;;;3.00;99.90;;;;;;5047098;28;20468;-80
2021/01/06 03:00:23;;;;;;;12.25;5.28;;;3.00;99.90;;;;;;5046725;28;20339;-78
2021/01/06 03:02:50;;;;;;;11.75;6.15;;;3.10;99.90;;;;;;5046442;28;20532;-79
2021/01/06 03:05:32;;;;;;;9.07;3.97;;;3.20;99.90;;;;;;5046259;28;20029;-81
2021/01/06 03:07:57;;;;;;;7.85;4.18;;;3.20;99.90;;;;;;5048126;28;20021;-79
2021/01/06 03:10:23;;;;;;;8.70;3.90;;;3.30;99.90;;;;;;5030280;28;20545;-81
2021/01/06 03:12:52;;;;;;;10.57;3.90;;;3.30;99.90;;;;;;5046696;28;20557;-78
2021/01/06 03:15:20;;;;;;;9.02;3.67;;;3.40;99.90;;;;;;5047999;28;20078;-79
2021/01/06 03:17:46;;;;;;;7.13;3.47;;;3.40;99.90;;;;;;5048237;28;20032;-79
2021/01/06 03:20:21;;;;;;;8.90;4.00;;;3.40;99.90;;;;;;5030227;28;20033;-78
2021/01/06 03:22:53;;;;;;;7.70;3.67;;;3.50;99.90;;;;;;5046924;28;20147;-80
2021/01/06 03:25:19;;;;;;;7.65;3.50;;;3.50;99.90;;;;;;5047573;28;20028;-81
2021/01/06 03:27:49;;;;;;;11.60;3.58;;;3.50;99.90;;;;;;5029816;28;20025;-84
2021/01/06 03:30:21;;;;;;;7.65;4.22;;;3.50;99.90;;;;;;5046406;28;20025;-83
2021/01/06 03:32:55;;;;;;;8.55;4.68;;;3.50;99.90;;;;;;5046649;28;20067;-80
2021/01/06 03:35:38;;;;;;;8.70;4.70;;;3.50;99.90;;;;;;5046517;28;20070;-78
2021/01/06 03:38:24;;;;;;;7.00;4.45;;;3.40;99.90;;;;;;5046695;28;20379;-79
2021/01/06 03:40:53;;;;;;;9.40;4.68;;;3.40;99.90;;;;;;5047259;28;20045;-81
2021/01/06 03:43:20;;;;;;;7.45;4.82;;;3.40;99.90;;;;;;5046343;28;20101;-80
2021/01/06 03:45:50;;;;;;;10.88;4.57;;;3.50;99.90;;;;;;5046424;28;20128;-78
2021/01/06 03:48:51;;;;;;;11.93;4.72;;;3.50;99.90;;;;;;5047654;28;20021;-80
2021/01/06 03:51:51;;;;;;;7.70;4.10;;;3.50;99.90;;;;;;5046179;28;20024;-79
2021/01/06 03:54:56;;;;;;;9.38;4.88;;;3.50;99.90;;;;;;5047591;28;20036;-81
2021/01/06 03:57:23;;;;;;;13.45;5.15;;;3.50;99.90;;;;;;5047602;28;20029;-81
2021/01/06 03:59:51;;;;;;;11.73;4.80;;;3.50;99.90;;;;;;5046392;28;20033;-81
2021/01/06 04:02:42;;;;;;;9.82;4.95;;;3.50;99.90;;;;;;5047925;28;20021;-81
2021/01/06 04:05:13;;;;;;;10.25;4.82;;;3.50;99.90;;;;;;5047585;28;20423;-82
2021/01/06 04:07:50;;;;;;;10.57;4.85;;;3.50;99.90;;;;;;5046109;28;20036;-82
2021/01/06 04:10:24;;;;;;;8.40;4.90;;;3.50;99.90;;;;;;5029531;28;20036;-80
2021/01/06 04:12:50;;;;;;;8.00;4.57;;;3.60;99.90;;;;;;5046731;28;20033;-80
2021/01/06 04:15:17;;;;;;;10.20;5.18;;;3.70;99.90;;;;;;5029740;28;20391;-80
2021/01/06 04:17:48;;;;;;;14.73;5.00;;;3.70;99.90;;;;;;5048720;28;20036;-79
2021/01/06 04:20:14;;;;;;;13.07;5.15;;;3.80;99.90;;;;;;5049825;28;20031;-79
2021/01/06 04:22:46;;;;;;;7.57;4.60;;;3.80;99.90;;;;;;5049567;28;20365;-81
2021/01/06 04:25:24;;;;;;;6.88;4.45;;;3.90;99.90;;;;;;5050967;28;20021;-82
2021/01/06 04:28:18;;;;;;;11.80;4.28;;;3.90;99.90;;;;;;5049595;28;20048;-80
2021/01/06 04:30:48;;;;;;;7.07;4.45;;;3.90;99.90;;;;;;5049445;28;20028;-82
2021/01/06 04:33:42;;;;;;;11.05;4.78;;;3.90;99.90;;;;;;5049464;28;20103;-80
2021/01/06 04:36:15;;;;;;;8.90;4.45;;;3.90;99.90;;;;;;5049391;28;20369;-78
2021/01/06 04:38:45;;;;;;;10.38;4.13;;;4.00;99.90;;;;;;5050755;28;20025;-80
2021/01/06 04:41:39;;;;;;;10.27;4.75;;;4.00;99.90;;;;;;5049247;28;20032;-79
2021/01/06 04:44:42;;;;;;;8.23;5.10;;;4.00;99.90;;;;;;5049077;28;20519;-80
2021/01/06 04:48:01;;;;;;;9.65;3.95;;;4.10;99.90;;;;;;5050415;28;20016;-79
2021/01/06 04:50:48;;;;;;;8.45;4.35;;;4.00;99.90;;;;;;5031167;28;20120;-80
2021/01/06 04:53:45;;;;;;;6.95;4.35;;;4.00;99.90;;;;;;5047830;28;20056;-79
2021/01/06 04:56:47;;;;;;;7.90;4.25;;;4.00;99.90;;;;;;5050362;28;20033;-81
2021/01/06 04:59:22;;;;;;;11.75;4.72;;;4.00;99.90;;;;;;5048546;28;20037;-81
2021/01/06 05:02:09;;;;;;;6.25;3.90;;;4.00;99.90;;;;;;5050174;28;20660;-79
2021/01/06 05:04:57;;;;;;;10.93;3.85;;;4.00;99.90;;;;;;5050070;28;20045;-80
2021/01/06 05:07:41;;;;;;;7.47;3.88;;;4.10;99.90;;;;;;5048757;28;20488;-81
2021/01/06 05:10:10;;;;;;;6.57;4.03;;;4.00;99.90;;;;;;5048678;28;20460;-83
2021/01/06 05:12:44;;;;;;;7.90;4.07;;;4.10;99.90;;;;;;5050017;28;20049;-79
2021/01/06 05:15:09;;;;;;;8.73;3.60;;;4.10;99.90;;;;;;5048647;28;20016;-82
2021/01/06 05:17:36;;;;;;;9.55;4.18;;;4.10;99.90;;;;;;5048669;28;20525;-81
2021/01/06 05:20:03;;;;;;;7.18;3.65;;;4.00;99.90;;;;;;5048721;28;20440;-80
2021/01/06 05:22:29;;;;;;;9.20;3.50;;;4.00;99.80;;;;;;5048394;28;20033;-82
2021/01/06 05:24:55;;;;;;;7.38;3.30;;;4.10;99.80;;;;;;5048618;28;20408;-78
2021/01/06 05:27:34;;;;;;;5.80;3.60;;;4.00;99.80;;;;;;5048539;28;20087;-80
2021/01/06 05:30:05;;;;;;;7.80;3.65;;;4.00;99.70;;;;;;5049232;28;20025;-83
2021/01/06 05:32:40;;;;;;;6.50;3.47;;;4.00;99.70;;;;;;5048230;28;20477;-80
2021/01/06 05:35:18;;;;;;;5.68;3.20;;;4.00;99.60;;;;;;5048392;28;20025;-81
2021/01/06 05:37:51;;;;;;;5.07;3.45;;;4.00;99.60;;;;;;5048351;28;20020;-79
2021/01/06 05:40:17;;;;;;;5.30;3.22;;;4.00;99.60;;;;;;5049570;28;20047;-81
2021/01/06 05:42:55;;;;;;;5.40;3.67;;;3.90;99.50;;;;;;5049605;28;20025;-81
2021/01/06 05:45:26;;;;;;;6.25;3.40;;;3.90;99.50;;;;;;5049532;28;20025;-79
2021/01/06 05:47:57;;;;;;;9.77;3.75;;;3.80;99.40;;;;;;5048273;28;20067;-79
2021/01/06 05:50:31;;;;;;;8.30;3.65;;;3.80;99.40;;;;;;5049494;28;20033;-81
2021/01/06 05:53:35;;;;;;;6.78;3.33;;;3.80;99.50;;;;;;5049291;28;20029;-79
2021/01/06 05:56:16;;;;;;;5.65;3.33;;;3.80;99.60;;;;;;5048164;28;20040;-79
2021/01/06 05:58:49;;;;;;;9.60;3.90;;;3.80;99.80;;;;;;5049279;28;20360;-81
2021/01/06 06:01:50;;;;;;;5.63;3.35;;;3.90;99.60;;;;;;5047868;28;20446;-79
2021/01/06 06:04:38;;;;;;;11.15;3.95;;;3.90;99.60;;;;;;5047592;28;20518;-79
2021/01/06 06:07:13;;;;;;;6.05;3.47;;;4.00;99.50;;;;;;5047911;28;20028;-80
2021/01/06 06:09:47;;;;;;;8.98;3.78;;;4.00;99.50;;;;;;5047735;28;20422;-80
2021/01/06 06:12:41;;;;;;;8.63;4.68;;;4.00;99.40;;;;;;5048788;28;20481;-79
2021/01/06 06:15:19;;;;;;;8.77;3.75;;;4.00;99.40;;;;;;5049034;28;20071;-78
2021/01/06 06:18:10;;;;;;;9.45;3.80;;;4.00;99.40;;;;;;5047625;28;20021;-82
2021/01/06 06:20:51;;;;;;;13.85;4.18;;;4.00;99.40;;;;;;5048559;28;20017;-79
2021/01/06 06:23:51;;;;;;;7.07;3.55;;;3.90;99.30;;;;;;5047322;28;20476;-79
2021/01/06 06:26:41;;;;;;;9.02;4.32;;;3.90;99.40;;;;;;5047208;28;20071;-80
2021/01/06 06:29:29;;;;;;;9.95;4.15;;;4.00;99.40;;;;;;5047163;28;20040;-79
2021/01/06 06:31:59;;;;;;;6.20;3.90;;;3.90;99.30;;;;;;5048397;28;20025;-81
2021/01/06 06:34:35;;;;;;;13.68;4.20;;;3.90;99.40;;;;;;5047361;28;20428;-81
2021/01/06 06:37:19;;;;;;;9.57;4.35;;;4.00;99.40;;;;;;5048535;28;20021;-80
2021/01/06 06:40:04;;;;;;;8.48;4.40;;;4.00;99.40;;;;;;5047917;28;20021;-80
2021/01/06 06:42:49;;;;;;;7.53;4.32;;;4.00;99.40;;;;;;5046970;28;20025;-81
2021/01/06 06:45:44;;;;;;;12.23;5.07;;;4.00;99.30;;;;;;5047080;28;20021;-78
2021/01/06 06:48:44;;;;;;;10.32;4.72;;;4.10;99.30;;;;;;5047121;28;20040;-80
2021/01/06 06:51:33;;;;;;;9.20;5.65;;;4.10;99.30;;;;;;5048518;28;20020;-80
2021/01/06 06:54:10;;;;;;;13.13;5.65;;;4.10;99.30;;;;;;5047999;28;20033;-82
2021/01/06 06:56:53;;;;;;;7.60;4.18;;;4.10;99.30;;;;;;5048224;28;20025;-81
2021/01/06 06:59:42;;;;;;;10.02;4.50;;;4.10;99.30;;;;;;5046861;28;20024;-81
2021/01/06 07:02:08;;;;;;;10.43;5.50;;;4.20;99.30;;;;;;5046779;28;20111;-80
2021/01/06 07:04:47;;;;;;;11.70;5.25;;;4.20;99.30;;;;;;5046472;28;20053;-79
2021/01/06 07:07:32;;;;;;;8.25;4.70;;;4.20;99.30;;;;;;5046990;28;20021;-81
2021/01/06 07:09:59;;;;;;;9.05;4.38;;;4.20;99.30;;;;;;5047742;28;20046;-80
2021/01/06 07:12:25;;;;;;;6.28;4.53;;;4.20;99.30;;;;;;5014040;28;20550;-81
2021/01/06 07:14:59;;;;;;;10.85;5.75;;;4.20;99.30;;;;;;5030139;28;20138;-81
2021/01/06 07:17:38;;;;;;;7.25;5.13;;;4.20;99.30;;;;;;5046885;28;20392;-81
2021/01/06 07:20:08;;;;;;;10.90;4.82;;;4.20;99.40;;;;;;5046761;28;20025;-81
2021/01/06 07:22:38;;;;;;;10.05;5.28;;;4.20;99.40;;;;;;5046314;28;20033;-81
2021/01/06 07:25:33;;;;;;;8.63;4.97;;;4.20;99.40;;;;;;5046176;28;20021;-80
2021/01/06 07:28:03;;;;;;;7.80;5.30;;;4.20;99.40;;;;;;5048134;28;20071;-78
2021/01/06 07:30:34;;;;;;;8.70;4.68;;;4.20;99.40;;;;;;5047826;28;20028;-80
2021/01/06 07:33:08;;;;;;;11.35;4.95;;;4.20;99.30;;;;;;5046438;28;20041;-81
2021/01/06 07:35:34;;;;;;;12.23;5.18;;;4.20;99.30;;;;;;5046523;28;20036;-79
2021/01/06 07:38:03;;;;;;;12.45;4.70;;;4.10;99.30;;;;;;5046493;28;20112;-79
2021/01/06 07:40:56;;;;;;;10.15;5.43;;;4.00;99.30;;;;;;5047795;28;20475;-80
2021/01/06 07:43:26;;;;;;;9.15;4.80;;;4.00;99.40;;;;;;5047288;28;20068;-81
2021/01/06 07:45:59;;;;;;;6.55;4.50;;;4.00;99.30;;;;;;5046240;28;20120;-82
2021/01/06 07:48:45;;;;;;;9.85;4.85;;;4.00;99.40;;;;;;5047494;28;20204;-78
2021/01/06 07:51:36;;;;;;;6.82;4.50;;;3.90;99.50;;;;;;5047435;28;20036;-82
2021/01/06 07:54:10;;;;;;;8.18;5.03;;;3.90;99.50;;;;;;5051510;28;20491;-78
2021/01/06 07:57:01;;;;;;;9.18;4.88;;;3.90;99.50;;;;;;5051141;28;20036;-79
2021/01/06 07:59:55;;;;;;;12.35;4.57;;;3.80;99.50;;;;;;5051184;28;20099;-79
2021/01/06 08:02:38;;;;;;;8.82;4.03;;;3.90;99.50;;;;;;5049541;28;20025;-80
2021/01/06 08:05:29;;;;;;;9.85;4.78;;;3.80;99.60;;;;;;5051389;28;20040;-78
2021/01/06 08:08:04;;;;;;;8.57;4.88;;;3.80;99.60;;;;;;5050409;28;20021;-82
2021/01/06 08:10:32;;;;;;;9.40;4.70;;;3.80;99.60;;;;;;5049841;28;20476;-78
2021/01/06 08:13:14;;;;;;;8.00;4.93;;;3.80;99.70;;;;;;5017232;28;20585;-82
2021/01/06 08:15:41;;;;;;;17.75;5.95;;;3.80;99.60;;;;;;5049918;28;20029;-80
2021/01/06 08:18:25;;;;;;;8.85;4.55;;;3.80;99.50;;;;;;5049874;28;20024;-82
2021/01/06 08:20:51;;;;;;;10.00;5.43;;;3.80;99.50;;;;;;5051042;28;20025;-81
2021/01/06 08:23:19;;;;;;;10.40;5.10;;;3.80;99.60;;;;;;5049410;28;20031;-80
2021/01/06 08:26:24;;;;;;;13.32;5.25;;;3.70;99.60;;;;;;5049437;28;20025;-80
2021/01/06 08:28:50;;;;;;;10.60;4.63;;;3.70;99.70;;;;;;5043399;28;20497;-80
2021/01/06 08:31:21;;;;;;;7.47;4.70;;;3.70;99.70;;;;;;5032831;28;20033;-80
2021/01/06 08:33:52;;;;;;;7.88;5.72;;;3.70;99.70;;;;;;5050730;28;20039;-80
2021/01/06 08:36:30;;;;;;;10.38;4.72;;;3.70;99.70;;;;;;5049476;28;20041;-79
2021/01/06 08:39:17;;;;;;;11.15;5.00;;;3.80;99.70;;;;;;5050766;28;20021;-78
2021/01/06 08:41:44;;;;;;;14.40;5.85;;;3.80;99.70;;;;;;5050366;28;20033;-78
2021/01/06 08:44:31;;;;;;;10.25;6.82;;;3.80;99.60;;;;;;5050394;28;20040;-81
2021/01/06 08:47:03;;;;;;;15.63;6.63;;;3.70;99.60;;;;;;5049425;28;20484;-81
2021/01/06 08:49:35;;;;;;;11.60;6.40;;;3.70;99.60;;;;;;5050582;28;20060;-78
2021/01/06 08:52:16;;;;;;;12.82;7.13;;;3.60;99.70;;;;;;5049091;28;20025;-68
2021/01/06 08:54:57;;;;;;;12.20;6.55;;;3.60;99.70;;;;;;5050075;28;20070;-80
2021/01/06 08:57:34;;;;;;;11.82;6.65;;;3.60;99.70;;;;;;5049028;28;20029;-79
2021/01/06 09:00:15;;;;;;;17.45;7.78;;;3.60;99.70;;;;;;5050175;28;20021;-82
2021/01/06 09:02:56;;;;;;;15.10;7.75;;;3.60;99.70;;;;;;5049073;28;20537;-81
2021/01/06 09:06:13;;;;;;;19.00;7.35;;;3.60;99.70;;;;;;5050478;28;20379;-80
2021/01/06 09:08:39;;;;;;;15.52;7.90;;;3.60;99.80;;;;;;5037105;28;20418;-81
2021/01/06 09:11:15;;;;;;;12.25;6.28;;;3.60;99.60;;;;;;5049008;28;20051;-81
2021/01/06 09:13:51;;;;;;;15.15;8.23;;;3.60;99.60;;;;;;5048504;28;20102;-80
2021/01/06 09:16:46;;;;;;;13.95;8.15;;;3.60;99.60;;;;;;5049778;28;20047;-81
2021/01/06 09:19:39;;;;;;;17.50;7.75;;;3.60;99.60;;;;;;5048332;28;20503;-79
2021/01/06 09:22:06;;;;;;;16.77;7.32;;;3.60;99.60;;;;;;5049317;28;20028;-78
2021/01/06 09:24:38;;;;;;;14.43;6.07;;;3.60;99.60;;;;;;5049142;28;20036;-74
2021/01/06 09:27:22;;;;;;;14.00;6.43;;;3.70;99.60;;;;;;5049661;28;20029;-80
2021/01/06 09:29:49;;;;;;;13.50;7.00;;;3.70;99.60;;;;;;5049430;28;20389;-79
2021/01/06 09:32:23;;;;;;;14.52;6.68;;;3.70;99.60;;;;;;5047998;28;20025;-80
2021/01/06 09:34:56;;;;;;;12.75;5.88;;;3.80;99.70;;;;;;5048349;28;20029;-79
2021/01/06 09:37:31;;;;;;;10.00;5.97;;;3.80;99.70;;;;;;5048061;28;20495;-79
2021/01/06 09:40:10;;;;;;;14.00;5.85;;;3.80;99.70;;;;;;5048098;28;20193;-79
2021/01/06 09:42:38;;;;;;;13.47;7.13;;;3.90;99.70;;;;;;5048221;28;20021;-79
2021/01/06 09:45:05;;;;;;;9.60;5.90;;;3.90;99.60;;;;;;5048190;28;20295;-79
2021/01/06 09:47:39;;;;;;;12.98;6.90;;;4.00;99.90;;;;;;5047934;28;20142;-80
2021/01/06 09:50:25;;;;;;;10.18;5.97;;;4.00;99.70;;;;;;5047836;28;20060;-81
2021/01/06 09:52:53;;;;;;;8.02;5.28;;;4.10;99.60;;;;;;5047444;28;20127;-80
2021/01/06 09:55:25;;;;;;;11.70;6.35;;;4.10;99.50;;;;;;5049084;28;20043;-82
2021/01/06 09:58:13;;;;;;;15.32;6.72;;;4.10;99.60;;;;;;5049009;28;20380;-81
2021/01/06 10:00:52;;;;;;;15.80;10.98;;;4.10;99.60;;;;;;5049037;28;20032;-80
2021/01/06 10:03:18;;;;;;;15.13;7.40;;;4.20;99.60;;;;;;5047905;28;20067;-78
2021/01/06 10:05:53;;;;;;;13.05;6.68;;;4.20;99.50;;;;;;5014786;28;20033;-81
2021/01/06 10:08:41;;;;;;;13.45;6.97;;;4.20;99.50;;;;;;5047629;28;20047;-80
2021/01/06 10:11:33;;;;;;;13.30;7.40;;;4.20;99.60;;;;;;5049071;28;20392;-79
2021/01/06 10:14:11;;;;;;;10.30;7.15;;;4.20;99.60;;;;;;5047624;28;20116;-79
2021/01/06 10:16:47;;;;;;;13.13;7.15;;;4.20;99.50;;;;;;5048840;28;20025;-80
2021/01/06 10:19:37;;;;;;;13.63;6.95;;;4.20;99.50;;;;;;5047474;28;20571;-79
2021/01/06 10:22:08;;;;;;;;;;;4.20;99.50;;;;;;5048328;28;20399;-80
2021/01/06 10:25:07;;;;;;;15.43;6.63;;;4.20;99.60;;;;;;5048931;28;19909;-80
2021/01/06 10:27:40;;;;;;;12.20;7.07;;;4.20;99.50;;;;;;5048629;28;20028;-78
2021/01/06 10:30:14;;;;;;;21.40;10.60;;;4.20;99.40;;;;;;5047151;28;20028;-78
2021/01/06 10:32:46;;;;;;;15.25;9.93;;;4.20;99.60;;;;;;5047114;28;20434;-79
2021/01/06 10:35:33;;;;;;;21.73;11.10;;;4.20;99.60;;;;;;5047061;28;20111;-78
2021/01/06 10:38:23;;;;;;;26.15;13.90;;;4.20;99.70;;;;;;5049978;28;20047;-78
2021/01/06 10:40:52;;;;;;;21.67;10.80;;;4.20;99.60;;;;;;5049658;28;20454;-79
2021/01/06 10:43:33;;;;;;;18.55;10.02;;;4.20;99.60;;;;;;5047240;28;20064;-81
2021/01/06 10:45:59;;;;;;;16.70;10.38;;;4.20;99.70;;;;;;5048186;28;20021;-80
2021/01/06 10:48:47;;;;;;;17.10;10.55;;;4.30;99.80;;;;;;5047002;28;20036;-79
2021/01/06 10:51:50;;;;;;;16.73;9.98;;;4.30;99.90;;;;;;5046353;28;20023;-79
2021/01/06 10:54:36;;;;;;;13.73;8.43;;;4.40;99.90;;;;;;5048003;28;20084;-79
2021/01/06 10:57:15;;;;;;;11.93;7.43;;;4.50;99.90;;;;;;5046648;28;20459;-80
2021/01/06 11:00:00;;;;;;;24.33;9.35;;;4.60;99.90;;;;;;5046784;28;20029;-79
2021/01/06 11:02:56;;;;;;;21.25;8.90;;;4.60;99.80;;;;;;5046764;28;20095;-79
2021/01/06 11:05:44;;;;;;;16.58;10.48;;;4.70;99.80;;;;;;5047794;28;20091;-78
2021/01/06 11:08:34;;;;;;;16.90;9.10;;;4.70;99.80;;;;;;5046562;28;20123;-79
2021/01/06 11:11:38;;;;;;;12.48;7.43;;;4.80;99.90;;;;;;5046618;28;20098;-79
2021/01/06 11:14:16;;;;;;;12.13;7.28;;;4.90;99.80;;;;;;5046615;28;20028;-79
2021/01/06 11:16:48;;;;;;;12.93;6.45;;;5.00;99.70;;;;;;5047453;28;20096;-81
2021/01/06 11:19:47;;;;;;;12.35;7.10;;;5.00;99.60;;;;;;5045999;28;20483;-78
2021/01/06 11:22:35;;;;;;;11.55;6.85;;;5.00;99.50;;;;;;5045775;28;20429;-79
2021/01/06 11:25:42;;;;;;;14.77;7.25;;;5.00;99.30;;;;;;5047252;28;20108;-82
2021/01/06 11:28:29;;;;;;;16.45;7.45;;;5.00;99.30;;;;;;5045993;28;20043;-80
2021/01/06 11:31:12;;;;;;;16.25;8.50;;;5.00;99.30;;;;;;5047039;28;20494;-78
2021/01/06 11:33:38;;;;;;;11.68;8.00;;;5.00;99.40;;;;;;5046977;28;20472;-78
2021/01/06 11:36:07;;;;;;;13.32;8.68;;;5.10;99.50;;;;;;5047176;28;20029;-79
2021/01/06 11:38:38;;;;;;;21.20;10.40;;;5.10;99.40;;;;;;5045599;28;20025;-78
2021/01/06 11:41:09;;;;;;;16.40;8.93;;;5.10;99.40;;;;;;5047389;28;20029;-80
2021/01/06 11:43:58;;;;;;;23.27;12.23;;;5.20;99.20;;;;;;5045690;28;20029;-80
2021/01/06 11:46:36;;;;;;;28.85;10.73;;;5.10;99.20;;;;;;5047193;28;20017;-78
2021/01/06 11:49:29;;;;;;;13.70;7.70;;;5.20;99.20;;;;;;5047440;28;20094;-78
2021/01/06 11:52:28;;;;;;;13.68;6.97;;;5.20;99.10;;;;;;5047436;28;20422;-79
2021/01/06 11:55:12;;;;;;;15.75;7.22;;;5.20;99.30;;;;;;5046054;28;20387;-80
2021/01/06 11:57:41;;;;;;;10.48;6.18;;;5.30;99.10;;;;;;5046901;28;20340;-80
2021/01/06 12:00:35;;;;;;;10.75;5.72;;;5.30;99.00;;;;;;5045606;28;20056;-79
2021/01/06 12:03:39;;;;;;;14.43;6.68;;;5.30;99.00;;;;;;5046867;28;20047;-80
2021/01/06 12:06:29;;;;;;;14.55;7.55;;;5.30;99.00;;;;;;5046398;28;20045;-78
2021/01/06 12:09:22;;;;;;;9.30;6.00;;;5.30;99.00;;;;;;5046556;28;20116;-79
2021/01/06 12:12:17;;;;;;;12.77;6.45;;;5.30;98.90;;;;;;5045436;28;20033;-80
2021/01/06 12:15:09;;;;;;;11.38;5.78;;;5.30;99.00;;;;;;5034545;28;20033;-79
2021/01/06 12:17:45;;;;;;;8.15;5.43;;;5.40;98.90;;;;;;5044979;28;20392;-79
2021/01/06 12:20:25;;;;;;;8.80;5.82;;;5.40;98.80;;;;;;5044990;28;20033;-79
2021/01/06 12:23:13;;;;;;;9.43;6.20;;;5.30;98.80;;;;;;5044634;28;20458;-81
2021/01/06 12:25:49;;;;;;;24.00;11.95;;;5.30;98.70;;;;;;5046182;28;20025;-81
2021/01/06 12:28:34;;;;;;;21.92;9.85;;;5.30;98.60;;;;;;5045649;28;20016;-83
2021/01/06 12:31:24;;;;;;;16.80;8.82;;;5.30;98.50;;;;;;5046186;28;20387;-79
2021/01/06 12:34:41;;;;;;;12.80;6.97;;;5.20;98.40;;;;;;5045024;28;20395;-79
2021/01/06 12:37:13;;;;;;;13.05;6.45;;;5.20;98.50;;;;;;5026378;28;20040;-78
2021/01/06 12:40:05;;;;;;;9.50;5.53;;;5.20;98.60;;;;;;5046432;28;20112;-80
2021/01/06 12:42:46;;;;;;;10.95;6.15;;;5.20;98.50;;;;;;5042010;28;20111;-80
2021/01/06 12:45:29;;;;;;;10.15;6.20;;;5.20;98.50;;;;;;5050197;28;20029;-78
2021/01/06 12:48:08;;;;;;;9.20;5.93;;;5.20;98.50;;;;;;5049607;28;20032;-81
2021/01/06 12:51:00;;;;;;;9.15;5.40;;;5.20;98.50;;;;;;5048421;28;20017;-83
2021/01/06 12:53:31;;;;;;;8.73;5.35;;;5.10;98.50;;;;;;5049271;28;20029;-81
2021/01/06 12:56:13;;;;;;;10.07;4.93;;;5.20;98.60;;;;;;5048074;28;20024;-79
2021/01/06 12:58:58;;;;;;;10.90;5.30;;;5.10;98.60;;;;;;5049288;28;20411;-78
2021/01/06 13:01:40;;;;;;;8.90;5.43;;;5.20;98.80;;;;;;5047728;28;20031;-79
2021/01/06 13:04:08;;;;;;;18.02;9.63;;;5.20;98.70;;;;;;5047696;28;20053;-80
2021/01/06 13:06:56;;;;;;;10.35;6.18;;;5.20;98.60;;;;;;5031672;28;20052;-77
2021/01/06 13:09:36;;;;;;;7.68;5.32;;;5.20;98.50;;;;;;5049858;28;20354;-79
2021/01/06 13:12:17;;;;;;;12.77;7.25;;;5.20;98.30;;;;;;5049310;28;20028;-80
2021/01/06 13:14:45;;;;;;;16.90;7.53;;;5.10;98.30;;;;;;5049542;28;20107;-81
2021/01/06 13:17:13;;;;;;;12.88;7.38;;;5.00;98.20;;;;;;5049338;28;20062;-79
2021/01/06 13:20:12;;;;;;;11.40;7.63;;;4.90;98.20;;;;;;5047803;28;20028;-79
2021/01/06 13:22:50;;;;;;;13.48;7.82;;;4.80;98.40;;;;;;5048885;28;20501;-82
2021/01/06 13:25:24;;;;;;;13.80;7.28;;;4.80;98.60;;;;;;5049338;28;20029;-80
2021/01/06 13:27:50;;;;;;;17.13;7.43;;;4.80;98.80;;;;;;5049401;28;20339;-80
2021/01/06 13:30:47;;;;;;;10.90;6.50;;;5.00;99.00;;;;;;5047526;28;20586;-78
2021/01/06 13:33:22;;;;;;;11.35;7.30;;;5.10;98.90;;;;;;5047560;28;20025;-79
2021/01/06 13:35:57;;;;;;;15.35;7.60;;;5.20;99.00;;;;;;5049625;28;20061;-79
2021/01/06 13:38:57;;;;;;;16.90;8.57;;;5.20;98.60;;;;;;5047687;28;20444;-80
2021/01/06 13:41:43;;;;;;;19.63;7.72;;;5.20;98.60;;;;;;5048768;28;20037;-80
2021/01/06 13:44:17;;;;;;;10.30;6.80;;;5.30;98.90;;;;;;5047460;28;20024;-80